Salt Lake City, UT

8:39 PM MDT on July 23, 2017 (GMT -0600)
Decker Lake | | Change Station

Elev 4243 ft 40.71 °N, 111.95 °W | Updated 2 seconds ago

Partly Cloudy
Partly Cloudy
85.8 °F
Feels Like 83 °F
N
5.8
Wind Variable Wind from WSW
Gusts 5.8 mph

Today
High -- | Low -- °F
--% Chance of Precip.
Yesterday
High -- | Low -- °F
Precip. -- in
Pressure 30.02 in
Visibility 10.0 miles
Clouds Clear
Heat Index 83 °F
Dew Point 39 °F
Humidity 19%
Rainfall 0.00 in
Snow Depth Not available.
6:16 AM 8:51 PM
New Moon, 1% visible
METAR KU42 240235Z AUTO 21012KT 10SM CLR 29/14 A3002 RMK AO1 T02880141
Pressure 30.02 in
Visibility 10.0 miles
Clouds Clear
Heat Index 83 °F
Dew Point 39 °F
Humidity 19%
Rainfall 0.00 in
Snow Depth Not available.
6:16 AM 8:51 PM
New Moon, 1% visible
METAR KU42 240235Z AUTO 21012KT 10SM CLR 29/14 A3002 RMK AO1 T02880141

Get Severe Weather Alerts

Thanks for signing up!

Be on the lookout for a verification email in your inbox.

You'll start receiving the daily forecast at 6 AM.

×

10-Day Weather Forecast

Almanac

Astronomy

Jul. 23, 2017 Rise Set
Actual Time
Civil Twilight
Nautical Twilight
Astronomical Twilight
Moon
Length of Visible Light
Length of Day
Tomorrow will be .
, % of the Moon is Illuminated

Today's Extremes

State Highs State Lows

Community

WunderPhotos

Category 6

Welcome to Category 6. This is the collective home for Weather Underground's featured writeups by Dr. Jeff Masters (right), Bob Henson (left), Chris Burt, and other regular contributors.

Nearby

Air Quality

  Air Quality AQ Index Pollutant
Not available.

Snow Depth

Station Depth Elevation

Earthquake Activity

City Distance Mag. Time & Date
Minimum magnitude displayed is 2.5.

Coastal Water Temperatures

Place Temperature

Stations

Nearby Weather Stations

Station Location Temp. Windchill Dew Point Humidity Wind Precip. Elev Updated Type
                   

Watches & Warnings

There are currently no watches in effect.